首页
METAR-TAF:

METAR-TAF

机场 :

波德戈里察國際機場

波德戈里察, 蒙特內哥羅

纬度: 42-26N, 经度: 019-17E, 海拔: 53米

当前天气观测

该预报发布于18分钟前的07:00 UTC
风速3节,风向,在东南西南之间变化
温度 17°C
湿度 82%
气压 1010 hPa
能见度10公里或以上
少量云层高于2000英尺
散云层高于4000英尺

METAR: LYPG 200700Z 17003KT 140V220 9999 FEW020 SCT040 17/14 Q1010 NOSIG

时间: 09:18 (07:18 UTC)

预报

该预报发布于2小时和18分钟前的05:00 UTC
预报有效从20日的 06点(UTC)到 21日的 06点(UTC)
风速5节,风向南转南东
能见度10公里或以上
少量云层高于1000英尺
散云层高于3300英尺
几率 40% :
短暂存在
从 20日的 07点(UTC)到 20日的 13点(UTC)
能見度: 5000
少量云层高于1000英尺
少量云层高于3000英尺, 塔状积云.
多云层高于3300英尺
阵雨
几率 40% :
短暂存在
从 20日的 13点(UTC)到 21日的 06点(UTC)
风速15节,风向多变,有时为25节阵风
能見度: 4000
少量云层高于1000英尺
少量云层高于2700英尺, 积雨云.
多云层高于3300英尺
雷暴, 雨

TAF: LYPG 200500Z 2006/2106 16005KT 9999 FEW010 SCT033 TX21/2013Z TN13/2103Z PROB40 TEMPO 2007/2013 5000 SHRA FEW010 FEW030TCU BKN033 PROB40 TEMPO 2013/2106 VRB15G25KT 4000 TSRA FEW010 FEW027CB BKN033

超过4000个机场的气象观测和天气预报(METAR&TAF报告)。

可查询的气象台以黄色和红色小点在地图上表示。

将鼠标移到小点上方,可查看气象台名称。

然后点击查看天气观测和预报。

如需切换地图:点击带黑十字的绿色按钮放大地图;点击带横线的绿色按钮缩小地图;或者点击绿色箭头查看邻近地区的地图。


METAR-TAF: